createdAt,value
2022-08-29T00:00:50.680Z,11.23
2022-08-29T00:03:19.224Z,15.53
2022-08-29T00:05:50.056Z,20.60
2022-08-29T00:08:19.147Z,12.20
2022-08-29T00:10:47.974Z,16.07
2022-08-29T00:13:17.315Z,14.23
2022-08-29T00:15:45.947Z,13.80
2022-08-29T00:18:16.342Z,11.17
2022-08-29T00:20:45.743Z,12.57
2022-08-29T00:23:14.314Z,18.67
2022-08-29T00:25:42.801Z,12.67
2022-08-29T00:28:11.301Z,15.37
2022-08-29T00:30:40.145Z,16.20
2022-08-29T00:33:09.462Z,27.20
2022-08-29T00:35:45.654Z,16.73
2022-08-29T00:38:18.213Z,26.73
2022-08-29T00:40:51.858Z,16.90
2022-08-29T00:43:24.721Z,15.17
2022-08-29T00:46:01.455Z,14.90
2022-08-29T00:48:30.202Z,19.50
2022-08-29T00:51:04.981Z,12.67
2022-08-29T00:53:36.954Z,17.33
2022-08-29T00:56:07.553Z,16.30
2022-08-29T00:58:39.814Z,18.40
2022-08-29T01:01:08.545Z,16.00
2022-08-29T01:03:42.788Z,14.63
2022-08-29T01:06:14.698Z,14.63
2022-08-29T01:08:44.213Z,15.90
2022-08-29T01:11:30.994Z,17.27
2022-08-29T01:14:00.665Z,17.43
2022-08-29T01:16:29.747Z,20.13
2022-08-29T01:19:00.751Z,17.37
2022-08-29T01:21:36.343Z,23.30
2022-08-29T01:24:10.038Z,23.13
2022-08-29T01:26:40.949Z,21.90
2022-08-29T01:29:09.813Z,17.27
2022-08-29T01:31:57.200Z,18.23
2022-08-29T01:34:27.663Z,14.47
2022-08-29T01:36:58.627Z,15.97
2022-08-29T01:39:29.966Z,14.87
2022-08-29T01:42:01.674Z,20.83
2022-08-29T01:44:30.419Z,22.10
2022-08-29T01:47:03.069Z,25.23
2022-08-29T01:49:34.584Z,24.90
2022-08-29T01:52:04.642Z,22.83
2022-08-29T01:54:34.407Z,21.43
2022-08-29T01:57:04.720Z,18.13
2022-08-29T01:59:33.625Z,15.80
2022-08-29T02:02:05.509Z,14.00
2022-08-29T02:04:34.535Z,22.97
2022-08-29T02:07:03.920Z,15.40
2022-08-29T02:09:33.145Z,14.40
2022-08-29T02:12:07.231Z,15.83
2022-08-29T02:14:36.789Z,17.63
2022-08-29T02:17:07.612Z,18.83
2022-08-29T02:19:37.025Z,16.03
2022-08-29T02:22:06.277Z,17.50
2022-08-29T02:24:35.058Z,16.90
2022-08-29T02:27:05.505Z,20.50
2022-08-29T02:29:37.723Z,15.17
2022-08-29T02:32:07.318Z,15.10
2022-08-29T02:34:36.543Z,16.47
2022-08-29T02:37:06.018Z,13.50
2022-08-29T02:39:34.620Z,18.53
2022-08-29T02:42:04.572Z,15.60
2022-08-29T02:44:32.899Z,13.00
2022-08-29T02:47:01.196Z,16.73
2022-08-29T02:49:30.308Z,20.93
2022-08-29T02:51:59.091Z,20.90
2022-08-29T02:54:27.344Z,16.20
2022-08-29T02:56:55.681Z,14.87
2022-08-29T02:59:25.189Z,13.40
2022-08-29T03:01:54.411Z,13.50
2022-08-29T03:04:22.705Z,14.43
2022-08-29T03:06:51.009Z,14.00
2022-08-29T03:09:19.335Z,16.83
2022-08-29T03:11:47.522Z,15.40
2022-08-29T03:14:16.007Z,20.90
2022-08-29T03:16:45.635Z,16.67
2022-08-29T03:19:13.922Z,20.67
2022-08-29T03:21:42.480Z,18.33
2022-08-29T03:24:10.663Z,21.67
2022-08-29T03:26:38.876Z,25.83
2022-08-29T03:29:07.044Z,15.23
2022-08-29T03:31:35.755Z,18.23
2022-08-29T03:34:05.982Z,22.03
2022-08-29T03:36:34.306Z,14.23
2022-08-29T03:39:02.559Z,14.27
2022-08-29T03:41:31.251Z,15.43
2022-08-29T03:44:00.284Z,17.30
2022-08-29T03:46:29.146Z,16.67
2022-08-29T03:48:57.425Z,15.40
2022-08-29T03:51:29.259Z,14.80
2022-08-29T03:53:57.861Z,15.90
2022-08-29T03:56:26.346Z,17.30
2022-08-29T03:58:54.905Z,14.37
2022-08-29T04:01:24.920Z,19.27
2022-08-29T04:03:53.948Z,16.47
2022-08-29T04:06:23.620Z,17.77
2022-08-29T04:08:53.672Z,16.40
2022-08-29T04:11:23.996Z,25.43
2022-08-29T04:13:53.049Z,19.83
2022-08-29T04:16:23.484Z,19.53
2022-08-29T04:18:51.819Z,19.47
2022-08-29T04:21:20.275Z,29.03
2022-08-29T04:23:48.730Z,16.93
2022-08-29T04:26:36.402Z,17.47
2022-08-29T04:29:06.129Z,19.23
2022-08-29T04:31:34.502Z,15.10
2022-08-29T04:34:02.862Z,14.97
2022-08-29T04:36:31.204Z,20.47
2022-08-29T04:38:59.435Z,15.20
2022-08-29T04:41:29.027Z,19.83
2022-08-29T04:43:57.227Z,21.17
2022-08-29T04:46:25.469Z,18.67
2022-08-29T04:48:54.203Z,26.70
2022-08-29T04:51:22.548Z,18.20
2022-08-29T04:53:52.057Z,25.80
2022-08-29T04:56:21.653Z,21.13
2022-08-29T04:58:52.282Z,20.60
2022-08-29T05:01:22.169Z,17.13
2022-08-29T05:03:52.400Z,23.83
2022-08-29T05:06:25.109Z,17.40
2022-08-29T05:08:59.640Z,15.20
2022-08-29T05:11:30.709Z,15.00
2022-08-29T05:14:00.861Z,17.17
2022-08-29T05:16:30.131Z,21.40
2022-08-29T05:19:01.196Z,16.23
2022-08-29T05:21:35.439Z,19.37
2022-08-29T05:24:05.610Z,18.67
2022-08-29T05:26:35.978Z,16.50
2022-08-29T05:29:08.423Z,16.90
2022-08-29T05:31:37.686Z,22.10
2022-08-29T05:34:11.271Z,18.63
2022-08-29T05:36:54.673Z,16.87
2022-08-29T05:39:22.929Z,16.57
2022-08-29T05:41:51.453Z,15.57
2022-08-29T05:44:21.145Z,15.17
2022-08-29T05:46:49.883Z,14.77
2022-08-29T05:49:18.265Z,17.37
2022-08-29T05:51:46.478Z,16.93
2022-08-29T05:54:14.945Z,15.73
2022-08-29T05:56:43.320Z,14.90
2022-08-29T05:59:13.723Z,16.10
2022-08-29T06:01:44.047Z,23.67
2022-08-29T06:04:12.880Z,18.07
2022-08-29T06:06:42.180Z,15.13
2022-08-29T06:09:11.106Z,13.47
2022-08-29T06:11:39.464Z,19.43
2022-08-29T06:14:07.886Z,18.27
2022-08-29T06:16:39.659Z,17.60
2022-08-29T06:19:09.229Z,22.87
2022-08-29T06:21:37.454Z,14.97
2022-08-29T06:24:05.970Z,15.03
2022-08-29T06:26:34.854Z,18.07
2022-08-29T06:29:05.823Z,15.90
2022-08-29T06:31:34.172Z,16.63
2022-08-29T06:34:04.855Z,15.67
2022-08-29T06:36:37.083Z,14.67
2022-08-29T06:39:08.108Z,14.17
2022-08-29T06:41:36.790Z,15.33
2022-08-29T06:44:05.397Z,14.73
2022-08-29T06:46:35.646Z,21.30
2022-08-29T06:49:05.468Z,21.87
2022-08-29T06:51:37.075Z,13.73
2022-08-29T06:54:07.308Z,14.37
2022-08-29T06:56:36.601Z,20.20
2022-08-29T06:59:05.816Z,18.70
2022-08-29T07:01:34.606Z,20.20
2022-08-29T07:04:04.908Z,14.07
2022-08-29T07:06:34.539Z,21.50
2022-08-29T07:09:02.732Z,20.10
2022-08-29T07:11:32.312Z,16.50
2022-08-29T07:14:02.622Z,18.40
2022-08-29T07:16:32.167Z,17.57
2022-08-29T07:19:00.374Z,15.73
2022-08-29T07:21:28.631Z,15.23
2022-08-29T07:23:58.963Z,15.80
2022-08-29T07:26:29.911Z,15.87
2022-08-29T07:29:00.278Z,19.27
2022-08-29T07:31:32.322Z,19.43
2022-08-29T07:34:02.685Z,17.23
2022-08-29T07:36:31.636Z,17.13
2022-08-29T07:39:01.940Z,16.40
2022-08-29T07:41:30.131Z,16.07
2022-08-29T07:43:58.923Z,15.10
2022-08-29T07:46:27.376Z,14.10
2022-08-29T07:48:55.846Z,20.13
2022-08-29T07:51:24.891Z,15.40
2022-08-29T07:53:56.783Z,15.30
2022-08-29T07:56:32.435Z,17.53
2022-08-29T07:59:04.320Z,16.27
2022-08-29T08:01:32.841Z,17.00
2022-08-29T08:04:05.855Z,19.70
2022-08-29T08:06:36.797Z,16.10
2022-08-29T08:09:06.251Z,19.77
2022-08-29T08:11:37.341Z,16.07
2022-08-29T08:14:05.953Z,20.80
2022-08-29T08:16:34.745Z,14.10
2022-08-29T08:19:03.053Z,14.70
2022-08-29T08:21:31.504Z,15.40
2022-08-29T08:23:59.701Z,17.20
2022-08-29T08:26:28.027Z,20.33
2022-08-29T08:28:57.676Z,14.57
2022-08-29T08:31:26.007Z,19.40
2022-08-29T08:33:54.514Z,16.53
2022-08-29T08:36:24.922Z,16.17
2022-08-29T08:38:54.395Z,15.80
2022-08-29T08:41:36.314Z,17.07
2022-08-29T08:44:08.411Z,16.53
2022-08-29T08:46:40.069Z,18.33
2022-08-29T08:49:11.615Z,16.03
2022-08-29T08:51:44.879Z,16.90
2022-08-29T08:54:19.443Z,18.90
2022-08-29T08:56:49.430Z,14.50
2022-08-29T08:59:21.188Z,13.77
2022-08-29T09:02:06.606Z,13.27
2022-08-29T09:04:48.461Z,17.43
2022-08-29T09:07:36.930Z,16.47
2022-08-29T09:10:16.578Z,14.13
2022-08-29T09:12:51.759Z,14.70
2022-08-29T09:15:24.007Z,12.63
2022-08-29T09:17:56.006Z,16.83
2022-08-29T09:20:32.837Z,12.40
2022-08-29T09:23:02.440Z,17.87
2022-08-29T09:25:31.204Z,15.93
2022-08-29T09:28:00.160Z,19.10
2022-08-29T09:30:31.388Z,16.53
2022-08-29T09:33:02.774Z,15.13
2022-08-29T09:35:37.114Z,18.30
2022-08-29T09:38:07.598Z,13.70
2022-08-29T09:40:46.519Z,12.70
2022-08-29T09:43:20.470Z,14.70
2022-08-29T09:46:10.273Z,16.87
2022-08-29T09:48:40.087Z,13.73
2022-08-29T09:51:14.264Z,13.83
2022-08-29T09:53:43.378Z,16.63
2022-08-29T09:56:17.092Z,18.00
2022-08-29T09:58:45.287Z,13.97
2022-08-29T10:01:19.810Z,14.20
2022-08-29T10:03:59.348Z,13.10
2022-08-29T10:06:31.547Z,11.80
2022-08-29T10:09:09.874Z,13.00
2022-08-29T10:11:42.118Z,12.70
2022-08-29T10:14:14.629Z,11.40
2022-08-29T10:16:52.639Z,14.70
2022-08-29T10:19:33.140Z,10.90
2022-08-29T10:22:07.660Z,13.17
2022-08-29T10:24:55.355Z,12.33
2022-08-29T10:27:32.729Z,13.47
2022-08-29T10:30:08.362Z,11.90
2022-08-29T10:32:52.844Z,12.10
2022-08-29T10:35:30.182Z,12.10
2022-08-29T10:38:01.134Z,10.43
2022-08-29T10:40:34.715Z,12.20
2022-08-29T10:43:16.940Z,11.43
2022-08-29T10:45:55.435Z,15.27
2022-08-29T10:48:30.329Z,14.23
2022-08-29T10:51:10.800Z,15.60
2022-08-29T10:53:42.220Z,15.17
2022-08-29T10:56:17.314Z,13.40
2022-08-29T10:58:52.473Z,11.93
2022-08-29T11:01:24.471Z,12.33
2022-08-29T11:04:04.679Z,15.57
2022-08-29T11:09:09.496Z,14.80
2022-08-29T11:11:39.580Z,12.33
2022-08-29T11:14:13.492Z,13.80
2022-08-29T11:16:44.478Z,13.20
2022-08-29T11:19:22.280Z,13.13
2022-08-29T11:21:56.748Z,12.33
2022-08-29T11:24:30.617Z,13.50
2022-08-29T11:27:07.318Z,14.23
2022-08-29T11:29:40.653Z,14.73
2022-08-29T11:32:13.882Z,13.43
2022-08-29T11:34:49.140Z,13.73
2022-08-29T11:37:30.097Z,22.33
2022-08-29T11:40:00.877Z,12.33
2022-08-29T11:43:01.793Z,14.37
2022-08-29T11:45:29.620Z,12.00
2022-08-29T11:48:20.848Z,11.47
2022-08-29T11:50:50.407Z,11.83
2022-08-29T11:53:33.956Z,10.40
2022-08-29T11:56:27.878Z,13.50
2022-08-29T11:58:57.279Z,15.93
2022-08-29T12:01:58.689Z,11.63
2022-08-29T12:04:55.919Z,12.10
2022-08-29T12:07:35.821Z,11.53
2022-08-29T12:10:06.581Z,13.97
2022-08-29T12:12:45.388Z,11.73
2022-08-29T12:15:43.522Z,11.87
2022-08-29T12:18:52.476Z,12.90
2022-08-29T12:21:47.328Z,12.57
2022-08-29T12:24:55.210Z,13.57
2022-08-29T12:28:02.055Z,13.23
2022-08-29T12:30:34.759Z,11.80
2022-08-29T12:33:14.495Z,13.43
2022-08-29T12:36:03.595Z,15.93
2022-08-29T12:38:42.109Z,17.10
2022-08-29T12:41:28.856Z,14.23
2022-08-29T12:43:59.874Z,12.03
2022-08-29T12:46:35.886Z,16.63
2022-08-29T12:49:08.225Z,13.47
2022-08-29T12:51:38.825Z,14.60
2022-08-29T12:54:08.141Z,14.97
2022-08-29T12:56:39.593Z,13.13
2022-08-29T12:59:07.949Z,13.93
2022-08-29T13:01:38.960Z,12.87
2022-08-29T13:04:15.117Z,14.80
2022-08-29T13:06:53.619Z,12.50
2022-08-29T13:09:29.928Z,11.57
2022-08-29T13:12:16.134Z,11.23
2022-08-29T13:14:49.093Z,16.23
2022-08-29T13:17:18.291Z,10.63
2022-08-29T13:20:19.562Z,17.00
2022-08-29T13:22:48.329Z,12.63
2022-08-29T13:25:19.419Z,10.53
2022-08-29T13:27:49.659Z,13.57
2022-08-29T13:30:23.446Z,12.30
2022-08-29T13:32:52.508Z,13.90
2022-08-29T13:35:31.425Z,12.43
2022-08-29T13:38:19.846Z,13.83
2022-08-29T13:40:49.389Z,11.20
2022-08-29T13:43:35.834Z,11.60
2022-08-29T13:46:15.573Z,12.40
2022-08-29T13:48:44.465Z,11.70
2022-08-29T13:51:13.416Z,9.67
2022-08-29T13:53:44.708Z,8.07
2022-08-29T13:56:22.599Z,11.83
2022-08-29T13:58:52.427Z,11.50
2022-08-29T14:01:30.881Z,8.57
2022-08-29T14:04:36.826Z,12.00
2022-08-29T14:07:07.038Z,10.63
2022-08-29T14:09:59.877Z,9.17
2022-08-29T14:12:50.810Z,9.10
2022-08-29T14:15:41.444Z,8.73
2022-08-29T14:18:37.906Z,10.63
2022-08-29T14:21:06.837Z,8.50
2022-08-29T14:23:35.898Z,11.93
2022-08-29T14:26:04.079Z,10.30
2022-08-29T14:28:35.710Z,8.83
2022-08-29T14:31:07.966Z,9.73
2022-08-29T14:33:36.169Z,10.67
2022-08-29T14:36:04.762Z,9.50
2022-08-29T14:38:33.404Z,10.67
2022-08-29T14:41:01.703Z,11.53
2022-08-29T14:43:30.745Z,11.97
2022-08-29T14:45:59.026Z,10.43
2022-08-29T14:48:30.132Z,13.23
2022-08-29T14:50:58.372Z,16.93
2022-08-29T14:53:26.973Z,8.63
2022-08-29T14:56:07.087Z,8.33
2022-08-29T14:58:36.961Z,8.57
2022-08-29T15:01:05.389Z,11.03
2022-08-29T15:03:35.040Z,8.57
2022-08-29T15:06:03.991Z,10.40
2022-08-29T15:08:36.424Z,8.60
2022-08-29T15:11:05.723Z,9.43
2022-08-29T15:13:35.023Z,9.27
2022-08-29T15:16:03.855Z,8.73
2022-08-29T15:19:22.390Z,8.30
2022-08-29T15:21:22.325Z,7.80
2022-08-29T15:23:50.510Z,8.77
2022-08-29T15:26:18.665Z,7.73
2022-08-29T15:28:47.459Z,15.37
2022-08-29T15:31:16.267Z,8.60
2022-08-29T15:33:44.505Z,7.53
2022-08-29T15:36:12.722Z,13.73
2022-08-29T15:38:43.128Z,12.70
2022-08-29T15:41:11.489Z,15.80
2022-08-29T15:43:40.063Z,9.40
2022-08-29T15:46:08.819Z,13.20
2022-08-29T15:48:37.923Z,13.53
2022-08-29T15:51:08.567Z,19.47
2022-08-29T15:53:38.125Z,22.57
2022-08-29T15:56:08.830Z,20.57
2022-08-29T15:58:37.810Z,19.40
2022-08-29T16:01:06.297Z,18.17
2022-08-29T16:03:35.361Z,20.63
2022-08-29T16:06:04.736Z,18.33
2022-08-29T16:08:32.914Z,22.37
2022-08-29T16:11:01.620Z,21.90
2022-08-29T16:13:31.261Z,22.13
2022-08-29T16:15:59.700Z,15.70
2022-08-29T16:18:28.011Z,13.40
2022-08-29T16:20:56.915Z,12.97
2022-08-29T16:23:25.252Z,15.20
2022-08-29T16:25:53.612Z,12.83
2022-08-29T16:28:21.963Z,8.40
2022-08-29T16:30:51.630Z,12.10
2022-08-29T16:33:19.785Z,12.93
2022-08-29T16:35:47.917Z,18.03
2022-08-29T16:38:16.295Z,19.90
2022-08-29T16:40:44.756Z,20.93
2022-08-29T16:43:12.911Z,12.90
2022-08-29T16:45:41.129Z,13.00
2022-08-29T16:48:15.591Z,27.43
2022-08-29T16:50:45.307Z,25.33
2022-08-29T16:53:14.419Z,31.87
2022-08-29T16:55:42.730Z,32.13
2022-08-29T16:58:28.523Z,14.30
2022-08-29T17:00:56.631Z,21.50
2022-08-29T17:03:26.798Z,18.60
2022-08-29T17:05:55.971Z,23.77
2022-08-29T17:08:23.536Z,22.20
2022-08-29T17:10:50.779Z,22.10
2022-08-29T17:13:17.762Z,14.83
2022-08-29T17:15:44.707Z,15.17
2022-08-29T17:18:12.995Z,15.40
2022-08-29T17:20:43.982Z,18.73
2022-08-29T17:23:15.763Z,15.20
2022-08-29T17:25:43.872Z,15.93
2022-08-29T17:28:27.728Z,21.37
2022-08-29T17:30:57.524Z,21.60
2022-08-29T17:33:26.569Z,28.50
2022-08-29T17:35:56.108Z,22.73
2022-08-29T17:38:24.415Z,18.83
2022-08-29T17:40:57.263Z,15.00
2022-08-29T17:43:26.492Z,25.73
2022-08-29T17:45:54.919Z,24.30
2022-08-29T17:48:23.259Z,26.27
2022-08-29T17:50:52.592Z,23.87
2022-08-29T17:53:23.038Z,31.73
2022-08-29T17:55:51.192Z,25.87
2022-08-29T17:58:20.399Z,15.80
2022-08-29T18:00:49.633Z,23.23
2022-08-29T18:03:19.726Z,31.60
2022-08-29T18:05:49.449Z,23.57
2022-08-29T18:08:18.941Z,18.73
2022-08-29T18:10:49.214Z,25.40
2022-08-29T18:13:21.424Z,16.30
2022-08-29T18:15:53.863Z,15.90
2022-08-29T18:18:22.546Z,19.03
2022-08-29T18:20:50.874Z,14.03
2022-08-29T18:23:19.428Z,26.63
2022-08-29T18:25:49.035Z,16.07
2022-08-29T18:28:17.429Z,22.33
2022-08-29T18:30:45.915Z,14.37
2022-08-29T18:33:14.512Z,16.53
2022-08-29T18:35:42.732Z,17.90
2022-08-29T18:38:10.865Z,28.00
2022-08-29T18:40:40.087Z,18.53
2022-08-29T18:43:11.216Z,14.10
2022-08-29T18:45:40.080Z,14.67
2022-08-29T18:48:08.822Z,15.90
2022-08-29T18:50:37.227Z,21.60
2022-08-29T18:53:07.767Z,21.80
2022-08-29T18:55:35.932Z,21.30
2022-08-29T18:58:04.594Z,23.87
2022-08-29T19:00:34.369Z,17.17
2022-08-29T19:03:04.070Z,14.80
2022-08-29T19:05:35.276Z,19.30
2022-08-29T19:08:03.656Z,13.70
2022-08-29T19:10:32.946Z,15.60
2022-08-29T19:13:01.327Z,16.40
2022-08-29T19:15:30.843Z,16.70
2022-08-29T19:18:00.644Z,20.40
2022-08-29T19:20:47.028Z,24.20
2022-08-29T19:23:16.138Z,19.50
2022-08-29T19:25:45.618Z,22.50
2022-08-29T19:28:14.181Z,25.73
2022-08-29T19:30:43.196Z,26.37
2022-08-29T19:33:15.239Z,19.13
2022-08-29T19:35:43.606Z,15.30
2022-08-29T19:38:11.751Z,11.53
2022-08-29T19:40:40.118Z,14.77
2022-08-29T19:43:13.861Z,19.30
2022-08-29T19:45:44.262Z,13.27
2022-08-29T19:48:15.434Z,10.90
2022-08-29T19:50:47.519Z,14.40
2022-08-29T19:53:24.596Z,21.70
2022-08-29T19:55:56.447Z,18.60
2022-08-29T19:58:31.492Z,17.80
2022-08-29T20:01:01.629Z,20.03
2022-08-29T20:03:32.948Z,24.03
2022-08-29T20:06:06.171Z,17.80
2022-08-29T20:08:37.741Z,14.80
2022-08-29T20:11:06.531Z,16.03
2022-08-29T20:13:36.341Z,14.57
2022-08-29T20:16:11.978Z,17.83
2022-08-29T20:18:42.404Z,27.43
2022-08-29T20:21:12.889Z,18.60
2022-08-29T20:23:49.598Z,12.30
2022-08-29T20:26:19.283Z,20.27
2022-08-29T20:28:48.496Z,29.73
2022-08-29T20:31:16.813Z,19.67
2022-08-29T20:33:47.610Z,15.60
2022-08-29T20:36:33.995Z,12.30
2022-08-29T20:39:07.504Z,14.83
2022-08-29T20:41:35.707Z,12.27
2022-08-29T20:44:07.623Z,11.13
2022-08-29T20:46:39.614Z,17.40
2022-08-29T20:49:09.700Z,14.90
2022-08-29T20:51:39.411Z,16.73
2022-08-29T20:54:08.743Z,14.73
2022-08-29T20:56:36.846Z,11.07
2022-08-29T20:59:05.007Z,13.70
2022-08-29T21:01:34.678Z,18.53
2022-08-29T21:04:21.143Z,15.73
2022-08-29T21:06:55.232Z,15.67
2022-08-29T21:09:23.549Z,13.77
2022-08-29T21:11:51.881Z,14.40
2022-08-29T21:14:22.431Z,14.67
2022-08-29T21:16:51.205Z,13.50
2022-08-29T21:19:19.863Z,17.40
2022-08-29T21:21:48.547Z,14.90
2022-08-29T21:24:18.409Z,15.40
2022-08-29T21:26:46.509Z,17.90
2022-08-29T21:29:14.755Z,22.10
2022-08-29T21:31:42.955Z,15.63
2022-08-29T21:34:12.158Z,14.63
2022-08-29T21:36:40.682Z,12.93
2022-08-29T21:39:11.171Z,17.80
2022-08-29T21:41:42.703Z,10.50
2022-08-29T21:44:12.038Z,11.57
2022-08-29T21:46:43.077Z,11.63
2022-08-29T21:49:13.761Z,12.43
2022-08-29T21:51:42.036Z,13.10
2022-08-29T21:54:13.346Z,12.27
2022-08-29T21:56:43.847Z,11.30
2022-08-29T21:59:12.893Z,10.17
2022-08-29T22:01:45.516Z,12.67
2022-08-29T22:04:27.948Z,13.30
2022-08-29T22:06:57.871Z,12.53
2022-08-29T22:09:26.507Z,11.90
2022-08-29T22:11:56.194Z,10.70
2022-08-29T22:14:44.852Z,12.27
2022-08-29T22:17:12.052Z,15.13
2022-08-29T22:19:40.215Z,13.37
2022-08-29T22:22:09.091Z,12.13
2022-08-29T22:24:37.993Z,11.67
2022-08-29T22:27:07.921Z,15.50
2022-08-29T22:29:37.111Z,10.87
2022-08-29T22:32:05.901Z,13.30
2022-08-29T22:34:34.267Z,11.73
2022-08-29T22:37:02.475Z,12.20
2022-08-29T22:39:30.607Z,14.80
2022-08-29T22:41:58.819Z,13.33
2022-08-29T22:45:02.846Z,9.87
2022-08-29T22:47:17.637Z,10.57
2022-08-29T22:49:45.950Z,9.70
2022-08-29T22:52:14.131Z,18.60
2022-08-29T22:54:42.363Z,11.47
2022-08-29T22:57:12.803Z,10.47
2022-08-29T22:59:43.245Z,9.97
2022-08-29T23:02:12.551Z,12.13
2022-08-29T23:04:41.278Z,12.83
2022-08-29T23:07:11.801Z,10.77
2022-08-29T23:09:40.489Z,18.37
2022-08-29T23:12:09.215Z,12.23
2022-08-29T23:14:39.548Z,13.60
2022-08-29T23:17:10.204Z,9.83
2022-08-29T23:19:41.027Z,11.33
2022-08-29T23:22:10.301Z,15.33
2022-08-29T23:24:39.160Z,10.23
2022-08-29T23:27:09.511Z,9.70
2022-08-29T23:29:42.048Z,11.83
2022-08-29T23:32:11.766Z,10.07
2022-08-29T23:34:39.883Z,10.13
2022-08-29T23:37:07.990Z,9.67
2022-08-29T23:39:36.193Z,10.83
2022-08-29T23:42:04.414Z,8.67
2022-08-29T23:44:32.606Z,12.40
2022-08-29T23:47:00.804Z,14.03
2022-08-29T23:49:30.343Z,12.17
2022-08-29T23:51:59.218Z,10.80
2022-08-29T23:54:27.740Z,11.20
2022-08-29T23:56:55.852Z,9.00
2022-08-29T23:59:41.701Z,10.20
